sensor_id;sensor_type;location;lat;lon;timestamp;temperature;humidity
48162;DHT22;33950;48.154;16.316;2022-09-27T00:01:17;16.30;96.90
48162;DHT22;33950;48.154;16.316;2022-09-27T00:04:03;16.20;96.80
48162;DHT22;33950;48.154;16.316;2022-09-27T00:06:49;16.20;96.90
48162;DHT22;33950;48.154;16.316;2022-09-27T00:09:36;16.20;96.80
48162;DHT22;33950;48.154;16.316;2022-09-27T00:12:23;16.20;96.90
48162;DHT22;33950;48.154;16.316;2022-09-27T00:15:10;16.20;96.90
48162;DHT22;33950;48.154;16.316;2022-09-27T00:17:56;16.20;96.90
48162;DHT22;33950;48.154;16.316;2022-09-27T00:20:42;16.20;97.00
48162;DHT22;33950;48.154;16.316;2022-09-27T00:23:28;16.20;96.90
48162;DHT22;33950;48.154;16.316;2022-09-27T00:26:15;16.10;96.90
48162;DHT22;33950;48.154;16.316;2022-09-27T00:29:02;16.10;96.90
48162;DHT22;33950;48.154;16.316;2022-09-27T00:31:48;16.00;96.90
48162;DHT22;33950;48.154;16.316;2022-09-27T00:34:34;16.00;96.80
48162;DHT22;33950;48.154;16.316;2022-09-27T00:37:21;15.90;97.00
48162;DHT22;33950;48.154;16.316;2022-09-27T00:40:07;15.90;97.10
48162;DHT22;33950;48.154;16.316;2022-09-27T00:42:54;15.90;97.10
48162;DHT22;33950;48.154;16.316;2022-09-27T00:45:42;16.00;96.90
48162;DHT22;33950;48.154;16.316;2022-09-27T00:48:32;16.00;96.90
48162;DHT22;33950;48.154;16.316;2022-09-27T00:51:20;15.90;96.80
48162;DHT22;33950;48.154;16.316;2022-09-27T00:54:08;15.90;96.90
48162;DHT22;33950;48.154;16.316;2022-09-27T00:56:57;15.80;97.00
48162;DHT22;33950;48.154;16.316;2022-09-27T00:59:46;15.90;97.00
48162;DHT22;33950;48.154;16.316;2022-09-27T01:02:34;15.90;97.00
48162;DHT22;33950;48.154;16.316;2022-09-27T01:05:23;15.90;97.10
48162;DHT22;33950;48.154;16.316;2022-09-27T01:08:10;15.90;97.00
48162;DHT22;33950;48.154;16.316;2022-09-27T01:11:09;15.90;96.80
48162;DHT22;33950;48.154;16.316;2022-09-27T01:14:18;15.70;96.90
48162;DHT22;33950;48.154;16.316;2022-09-27T01:17:19;15.70;97.00
48162;DHT22;33950;48.154;16.316;2022-09-27T01:20:28;15.70;97.00
48162;DHT22;33950;48.154;16.316;2022-09-27T01:23:33;15.70;96.90
48162;DHT22;33950;48.154;16.316;2022-09-27T01:26:33;15.70;96.80
48162;DHT22;33950;48.154;16.316;2022-09-27T01:29:27;15.70;96.90
48162;DHT22;33950;48.154;16.316;2022-09-27T01:32:26;15.70;96.80
48162;DHT22;33950;48.154;16.316;2022-09-27T01:35:22;15.70;96.80
48162;DHT22;33950;48.154;16.316;2022-09-27T01:38:14;15.70;96.90
48162;DHT22;33950;48.154;16.316;2022-09-27T01:41:05;15.70;96.90
48162;DHT22;33950;48.154;16.316;2022-09-27T01:43:58;15.60;96.70
48162;DHT22;33950;48.154;16.316;2022-09-27T01:46:48;15.60;96.60
48162;DHT22;33950;48.154;16.316;2022-09-27T01:49:41;15.60;96.80
48162;DHT22;33950;48.154;16.316;2022-09-27T01:52:38;15.50;97.00
48162;DHT22;33950;48.154;16.316;2022-09-27T01:55:29;15.40;97.10
48162;DHT22;33950;48.154;16.316;2022-09-27T01:58:21;15.30;97.30
48162;DHT22;33950;48.154;16.316;2022-09-27T02:01:08;15.30;97.30
48162;DHT22;33950;48.154;16.316;2022-09-27T02:03:56;15.20;97.30
48162;DHT22;33950;48.154;16.316;2022-09-27T02:06:47;15.30;97.20
48162;DHT22;33950;48.154;16.316;2022-09-27T02:09:37;15.00;97.50
48162;DHT22;33950;48.154;16.316;2022-09-27T02:12:29;14.90;97.60
48162;DHT22;33950;48.154;16.316;2022-09-27T02:15:17;14.80;97.80
48162;DHT22;33950;48.154;16.316;2022-09-27T02:18:09;14.70;97.90
48162;DHT22;33950;48.154;16.316;2022-09-27T02:21:01;14.70;98.00
48162;DHT22;33950;48.154;16.316;2022-09-27T02:23:53;14.70;98.00
48162;DHT22;33950;48.154;16.316;2022-09-27T02:26:43;14.80;98.10
48162;DHT22;33950;48.154;16.316;2022-09-27T02:29:35;14.50;98.20
48162;DHT22;33950;48.154;16.316;2022-09-27T02:32:24;14.30;98.50
48162;DHT22;33950;48.154;16.316;2022-09-27T02:35:14;14.30;98.70
48162;DHT22;33950;48.154;16.316;2022-09-27T02:38:03;14.40;99.00
48162;DHT22;33950;48.154;16.316;2022-09-27T02:40:52;14.40;98.70
48162;DHT22;33950;48.154;16.316;2022-09-27T02:43:38;14.60;98.60
48162;DHT22;33950;48.154;16.316;2022-09-27T02:46:36;14.70;98.30
48162;DHT22;33950;48.154;16.316;2022-09-27T02:49:48;14.70;98.20
48162;DHT22;33950;48.154;16.316;2022-09-27T02:52:45;14.60;98.50
48162;DHT22;33950;48.154;16.316;2022-09-27T02:55:43;14.50;98.50
48162;DHT22;33950;48.154;16.316;2022-09-27T02:58:44;14.60;98.60
48162;DHT22;33950;48.154;16.316;2022-09-27T03:01:38;14.70;98.40
48162;DHT22;33950;48.154;16.316;2022-09-27T03:04:33;14.70;98.40
48162;DHT22;33950;48.154;16.316;2022-09-27T03:07:20;14.70;98.40
48162;DHT22;33950;48.154;16.316;2022-09-27T03:10:10;14.80;98.30
48162;DHT22;33950;48.154;16.316;2022-09-27T03:13:00;14.80;98.20
48162;DHT22;33950;48.154;16.316;2022-09-27T03:15:48;14.80;98.20
48162;DHT22;33950;48.154;16.316;2022-09-27T03:18:34;14.70;98.30
48162;DHT22;33950;48.154;16.316;2022-09-27T03:21:20;14.80;98.20
48162;DHT22;33950;48.154;16.316;2022-09-27T03:24:06;14.70;98.30
48162;DHT22;33950;48.154;16.316;2022-09-27T03:26:52;14.60;98.50
48162;DHT22;33950;48.154;16.316;2022-09-27T03:29:38;14.50;98.80
48162;DHT22;33950;48.154;16.316;2022-09-27T03:32:26;14.50;98.80
48162;DHT22;33950;48.154;16.316;2022-09-27T03:35:13;14.60;98.60
48162;DHT22;33950;48.154;16.316;2022-09-27T03:37:59;14.70;98.40
48162;DHT22;33950;48.154;16.316;2022-09-27T03:40:45;14.70;98.40
48162;DHT22;33950;48.154;16.316;2022-09-27T03:43:31;14.80;98.30
48162;DHT22;33950;48.154;16.316;2022-09-27T03:46:17;14.80;98.30
48162;DHT22;33950;48.154;16.316;2022-09-27T03:49:05;14.80;98.10
48162;DHT22;33950;48.154;16.316;2022-09-27T03:51:51;14.80;98.10
48162;DHT22;33950;48.154;16.316;2022-09-27T03:54:37;14.80;98.20
48162;DHT22;33950;48.154;16.316;2022-09-27T03:57:23;14.80;98.00
48162;DHT22;33950;48.154;16.316;2022-09-27T04:00:11;14.70;98.20
48162;DHT22;33950;48.154;16.316;2022-09-27T04:02:57;14.80;98.10
48162;DHT22;33950;48.154;16.316;2022-09-27T04:05:45;14.70;98.10
48162;DHT22;33950;48.154;16.316;2022-09-27T04:08:31;14.70;98.10
48162;DHT22;33950;48.154;16.316;2022-09-27T04:11:17;14.60;98.20
48162;DHT22;33950;48.154;16.316;2022-09-27T04:14:03;14.50;98.30
48162;DHT22;33950;48.154;16.316;2022-09-27T04:16:50;14.30;98.50
48162;DHT22;33950;48.154;16.316;2022-09-27T04:19:36;14.30;98.60
48162;DHT22;33950;48.154;16.316;2022-09-27T04:22:24;14.20;98.70
48162;DHT22;33950;48.154;16.316;2022-09-27T04:25:10;14.00;98.80
48162;DHT22;33950;48.154;16.316;2022-09-27T04:27:56;13.90;99.10
48162;DHT22;33950;48.154;16.316;2022-09-27T04:30:44;13.90;99.20
48162;DHT22;33950;48.154;16.316;2022-09-27T04:33:30;13.90;99.20
48162;DHT22;33950;48.154;16.316;2022-09-27T04:36:19;13.90;99.30
48162;DHT22;33950;48.154;16.316;2022-09-27T04:39:12;13.90;99.50
48162;DHT22;33950;48.154;16.316;2022-09-27T04:41:59;13.80;99.50
48162;DHT22;33950;48.154;16.316;2022-09-27T04:44:45;13.90;99.60
48162;DHT22;33950;48.154;16.316;2022-09-27T04:47:32;14.00;99.70
48162;DHT22;33950;48.154;16.316;2022-09-27T04:50:19;14.20;99.50
48162;DHT22;33950;48.154;16.316;2022-09-27T04:53:06;14.30;99.50
48162;DHT22;33950;48.154;16.316;2022-09-27T04:55:53;14.40;99.40
48162;DHT22;33950;48.154;16.316;2022-09-27T04:58:40;14.50;99.40
48162;DHT22;33950;48.154;16.316;2022-09-27T05:01:26;14.60;99.20
48162;DHT22;33950;48.154;16.316;2022-09-27T05:04:13;14.60;99.20
48162;DHT22;33950;48.154;16.316;2022-09-27T05:07:00;14.50;99.30
48162;DHT22;33950;48.154;16.316;2022-09-27T05:09:46;14.60;99.30
48162;DHT22;33950;48.154;16.316;2022-09-27T05:12:34;14.70;99.20
48162;DHT22;33950;48.154;16.316;2022-09-27T05:15:20;14.70;99.00
48162;DHT22;33950;48.154;16.316;2022-09-27T05:18:07;14.70;99.10
48162;DHT22;33950;48.154;16.316;2022-09-27T05:20:54;14.70;99.10
48162;DHT22;33950;48.154;16.316;2022-09-27T05:23:41;14.50;99.10
48162;DHT22;33950;48.154;16.316;2022-09-27T05:26:27;14.40;99.40
48162;DHT22;33950;48.154;16.316;2022-09-27T05:29:15;14.40;99.40
48162;DHT22;33950;48.154;16.316;2022-09-27T05:32:02;14.40;99.40
48162;DHT22;33950;48.154;16.316;2022-09-27T05:34:48;14.40;99.50
48162;DHT22;33950;48.154;16.316;2022-09-27T05:37:38;14.60;99.60
48162;DHT22;33950;48.154;16.316;2022-09-27T05:40:26;14.60;99.40
48162;DHT22;33950;48.154;16.316;2022-09-27T05:43:13;14.70;99.40
48162;DHT22;33950;48.154;16.316;2022-09-27T05:46:02;14.80;99.20
48162;DHT22;33950;48.154;16.316;2022-09-27T05:48:50;14.80;99.20
48162;DHT22;33950;48.154;16.316;2022-09-27T05:51:36;14.80;99.20
48162;DHT22;33950;48.154;16.316;2022-09-27T05:54:22;14.80;99.20
48162;DHT22;33950;48.154;16.316;2022-09-27T05:57:08;14.90;99.20
48162;DHT22;33950;48.154;16.316;2022-09-27T05:59:54;14.80;99.30
48162;DHT22;33950;48.154;16.316;2022-09-27T06:02:42;14.90;99.50
48162;DHT22;33950;48.154;16.316;2022-09-27T06:05:30;15.00;99.50
48162;DHT22;33950;48.154;16.316;2022-09-27T06:08:17;15.10;99.50
48162;DHT22;33950;48.154;16.316;2022-09-27T06:11:06;14.90;99.60
48162;DHT22;33950;48.154;16.316;2022-09-27T06:13:53;15.00;99.60
48162;DHT22;33950;48.154;16.316;2022-09-27T06:16:39;15.10;99.50
48162;DHT22;33950;48.154;16.316;2022-09-27T06:19:27;15.20;99.50
48162;DHT22;33950;48.154;16.316;2022-09-27T06:22:13;15.20;99.40
48162;DHT22;33950;48.154;16.316;2022-09-27T06:24:59;15.20;99.50
48162;DHT22;33950;48.154;16.316;2022-09-27T06:27:45;15.20;99.60
48162;DHT22;33950;48.154;16.316;2022-09-27T06:30:31;15.20;99.50
48162;DHT22;33950;48.154;16.316;2022-09-27T06:33:18;15.20;99.60
48162;DHT22;33950;48.154;16.316;2022-09-27T06:36:07;15.20;99.60
48162;DHT22;33950;48.154;16.316;2022-09-27T06:38:53;15.30;99.60
48162;DHT22;33950;48.154;16.316;2022-09-27T06:41:39;15.30;99.50
48162;DHT22;33950;48.154;16.316;2022-09-27T06:44:26;15.30;99.60
48162;DHT22;33950;48.154;16.316;2022-09-27T06:47:12;15.40;99.80
48162;DHT22;33950;48.154;16.316;2022-09-27T06:49:59;15.40;99.80
48162;DHT22;33950;48.154;16.316;2022-09-27T06:52:48;15.50;99.90
48162;DHT22;33950;48.154;16.316;2022-09-27T06:55:34;15.50;99.90
48162;DHT22;33950;48.154;16.316;2022-09-27T06:58:20;15.50;99.90
48162;DHT22;33950;48.154;16.316;2022-09-27T07:01:27;15.50;99.90
48162;DHT22;33950;48.154;16.316;2022-09-27T07:04:13;15.50;99.90
48162;DHT22;33950;48.154;16.316;2022-09-27T07:07:01;15.70;99.90
48162;DHT22;33950;48.154;16.316;2022-09-27T07:09:48;15.70;99.90
48162;DHT22;33950;48.154;16.316;2022-09-27T07:12:35;15.70;99.90
48162;DHT22;33950;48.154;16.316;2022-09-27T07:15:21;15.80;99.90
48162;DHT22;33950;48.154;16.316;2022-09-27T07:18:08;15.80;99.90
48162;DHT22;33950;48.154;16.316;2022-09-27T07:20:54;15.80;99.90
48162;DHT22;33950;48.154;16.316;2022-09-27T07:23:40;15.80;99.90
48162;DHT22;33950;48.154;16.316;2022-09-27T07:26:27;15.90;99.90
48162;DHT22;33950;48.154;16.316;2022-09-27T07:29:13;15.90;99.90
48162;DHT22;33950;48.154;16.316;2022-09-27T07:32:00;15.90;99.90
48162;DHT22;33950;48.154;16.316;2022-09-27T07:34:46;15.90;99.90
48162;DHT22;33950;48.154;16.316;2022-09-27T07:37:33;15.90;99.90
48162;DHT22;33950;48.154;16.316;2022-09-27T07:40:19;15.90;99.90
48162;DHT22;33950;48.154;16.316;2022-09-27T07:43:07;15.80;99.90
48162;DHT22;33950;48.154;16.316;2022-09-27T07:45:55;15.80;99.90
48162;DHT22;33950;48.154;16.316;2022-09-27T07:48:41;15.80;99.90
48162;DHT22;33950;48.154;16.316;2022-09-27T07:51:27;15.80;99.90
48162;DHT22;33950;48.154;16.316;2022-09-27T07:54:14;15.70;99.90
48162;DHT22;33950;48.154;16.316;2022-09-27T07:57:00;15.50;99.90
48162;DHT22;33950;48.154;16.316;2022-09-27T07:59:49;15.50;99.90
48162;DHT22;33950;48.154;16.316;2022-09-27T08:02:35;15.50;99.90
48162;DHT22;33950;48.154;16.316;2022-09-27T08:05:21;15.50;99.90
48162;DHT22;33950;48.154;16.316;2022-09-27T08:08:08;15.40;99.90
48162;DHT22;33950;48.154;16.316;2022-09-27T08:10:54;15.40;99.90
48162;DHT22;33950;48.154;16.316;2022-09-27T08:13:40;15.20;99.90
48162;DHT22;33950;48.154;16.316;2022-09-27T08:16:28;15.10;99.90
48162;DHT22;33950;48.154;16.316;2022-09-27T08:19:14;14.90;99.90
48162;DHT22;33950;48.154;16.316;2022-09-27T08:22:01;14.60;99.90
48162;DHT22;33950;48.154;16.316;2022-09-27T08:24:48;14.30;99.90
48162;DHT22;33950;48.154;16.316;2022-09-27T08:27:34;14.00;99.90
48162;DHT22;33950;48.154;16.316;2022-09-27T08:30:20;13.70;99.90
48162;DHT22;33950;48.154;16.316;2022-09-27T08:33:08;13.40;99.90
48162;DHT22;33950;48.154;16.316;2022-09-27T08:35:54;13.20;99.90
48162;DHT22;33950;48.154;16.316;2022-09-27T08:38:40;13.10;99.90
48162;DHT22;33950;48.154;16.316;2022-09-27T08:41:33;13.00;99.90
48162;DHT22;33950;48.154;16.316;2022-09-27T08:44:28;12.90;99.90
48162;DHT22;33950;48.154;16.316;2022-09-27T08:47:24;12.90;99.90
48162;DHT22;33950;48.154;16.316;2022-09-27T08:50:24;12.80;99.90
48162;DHT22;33950;48.154;16.316;2022-09-27T08:53:18;12.80;99.90
48162;DHT22;33950;48.154;16.316;2022-09-27T08:56:07;12.90;99.90
48162;DHT22;33950;48.154;16.316;2022-09-27T08:58:59;13.10;99.90
48162;DHT22;33950;48.154;16.316;2022-09-27T09:01:46;13.30;99.90
48162;DHT22;33950;48.154;16.316;2022-09-27T09:04:34;13.40;99.90
48162;DHT22;33950;48.154;16.316;2022-09-27T09:07:39;13.50;99.90
48162;DHT22;33950;48.154;16.316;2022-09-27T09:10:42;13.70;99.90
48162;DHT22;33950;48.154;16.316;2022-09-27T09:14:07;13.90;99.90
48162;DHT22;33950;48.154;16.316;2022-09-27T09:17:05;13.90;99.90
48162;DHT22;33950;48.154;16.316;2022-09-27T09:20:13;13.80;99.90
48162;DHT22;33950;48.154;16.316;2022-09-27T09:23:17;13.70;99.90
48162;DHT22;33950;48.154;16.316;2022-09-27T09:26:13;13.70;99.90
48162;DHT22;33950;48.154;16.316;2022-09-27T09:29:17;13.70;99.90
48162;DHT22;33950;48.154;16.316;2022-09-27T09:32:14;13.60;99.90
48162;DHT22;33950;48.154;16.316;2022-09-27T09:35:10;13.60;99.90
48162;DHT22;33950;48.154;16.316;2022-09-27T09:38:00;13.60;99.90
48162;DHT22;33950;48.154;16.316;2022-09-27T09:40:52;13.60;99.90
48162;DHT22;33950;48.154;16.316;2022-09-27T09:43:43;13.80;99.90
48162;DHT22;33950;48.154;16.316;2022-09-27T09:46:33;13.90;99.90
48162;DHT22;33950;48.154;16.316;2022-09-27T09:49:22;14.10;99.90
48162;DHT22;33950;48.154;16.316;2022-09-27T09:52:15;14.10;99.90
48162;DHT22;33950;48.154;16.316;2022-09-27T09:55:07;14.20;99.90
48162;DHT22;33950;48.154;16.316;2022-09-27T09:58:10;14.20;99.90
48162;DHT22;33950;48.154;16.316;2022-09-27T10:01:11;14.30;99.90
48162;DHT22;33950;48.154;16.316;2022-09-27T10:03:58;14.30;99.90
48162;DHT22;33950;48.154;16.316;2022-09-27T10:51:07;15.30;99.90
48162;DHT22;33950;48.154;16.316;2022-09-27T10:54:04;15.20;99.90
48162;DHT22;33950;48.154;16.316;2022-09-27T10:56:59;15.30;99.90
48162;DHT22;33950;48.154;16.316;2022-09-27T10:59:50;15.40;99.90
48162;DHT22;33950;48.154;16.316;2022-09-27T11:02:37;15.50;99.90
48162;DHT22;33950;48.154;16.316;2022-09-27T11:05:31;15.30;99.90
48162;DHT22;33950;48.154;16.316;2022-09-27T11:08:28;15.20;99.90
48162;DHT22;33950;48.154;16.316;2022-09-27T11:11:17;15.40;99.90
48162;DHT22;33950;48.154;16.316;2022-09-27T11:14:19;15.40;99.90
48162;DHT22;33950;48.154;16.316;2022-09-27T11:17:11;15.40;99.90
48162;DHT22;33950;48.154;16.316;2022-09-27T11:20:14;15.40;99.90
48162;DHT22;33950;48.154;16.316;2022-09-27T11:23:21;15.20;99.90
48162;DHT22;33950;48.154;16.316;2022-09-27T11:29:23;15.20;99.90
48162;DHT22;33950;48.154;16.316;2022-09-27T11:32:25;15.10;99.90
48162;DHT22;33950;48.154;16.316;2022-09-27T11:35:33;15.00;99.90
48162;DHT22;33950;48.154;16.316;2022-09-27T11:38:24;14.80;99.90
48162;DHT22;33950;48.154;16.316;2022-09-27T11:41:36;14.80;99.90
48162;DHT22;33950;48.154;16.316;2022-09-27T11:44:49;14.70;99.90
48162;DHT22;33950;48.154;16.316;2022-09-27T11:47:40;14.60;99.90
48162;DHT22;33950;48.154;16.316;2022-09-27T11:50:51;14.50;99.90
48162;DHT22;33950;48.154;16.316;2022-09-27T11:54:04;14.40;99.90
48162;DHT22;33950;48.154;16.316;2022-09-27T11:57:00;14.40;99.90
48162;DHT22;33950;48.154;16.316;2022-09-27T12:00:15;14.30;99.90
48162;DHT22;33950;48.154;16.316;2022-09-27T12:03:27;14.30;99.90
48162;DHT22;33950;48.154;16.316;2022-09-27T12:06:20;14.20;99.90
48162;DHT22;33950;48.154;16.316;2022-09-27T12:09:13;14.30;99.90
48162;DHT22;33950;48.154;16.316;2022-09-27T12:12:05;14.40;99.90
48162;DHT22;33950;48.154;16.316;2022-09-27T12:14:58;14.40;99.90
48162;DHT22;33950;48.154;16.316;2022-09-27T12:17:48;14.50;99.90
48162;DHT22;33950;48.154;16.316;2022-09-27T12:20:36;14.70;99.90
48162;DHT22;33950;48.154;16.316;2022-09-27T12:23:25;14.70;99.90
48162;DHT22;33950;48.154;16.316;2022-09-27T12:26:16;14.60;99.90
48162;DHT22;33950;48.154;16.316;2022-09-27T12:29:11;14.60;99.90
48162;DHT22;33950;48.154;16.316;2022-09-27T12:32:04;14.60;99.90
48162;DHT22;33950;48.154;16.316;2022-09-27T12:34:58;14.60;99.80
48162;DHT22;33950;48.154;16.316;2022-09-27T12:37:50;14.70;99.70
48162;DHT22;33950;48.154;16.316;2022-09-27T12:40:40;14.70;99.70
48162;DHT22;33950;48.154;16.316;2022-09-27T12:43:28;14.70;99.40
48162;DHT22;33950;48.154;16.316;2022-09-27T12:46:28;14.70;99.50
48162;DHT22;33950;48.154;16.316;2022-09-27T12:49:26;14.70;99.20
48162;DHT22;33950;48.154;16.316;2022-09-27T12:52:18;14.60;99.40
48162;DHT22;33950;48.154;16.316;2022-09-27T12:55:39;14.60;99.30
48162;DHT22;33950;48.154;16.316;2022-09-27T12:58:41;14.50;99.40
48162;DHT22;33950;48.154;16.316;2022-09-27T13:01:44;14.50;99.50
48162;DHT22;33950;48.154;16.316;2022-09-27T13:05:00;14.50;99.60
48162;DHT22;33950;48.154;16.316;2022-09-27T13:08:08;14.40;99.00
48162;DHT22;33950;48.154;16.316;2022-09-27T13:11:07;14.40;99.10
48162;DHT22;33950;48.154;16.316;2022-09-27T13:13:57;14.40;99.40
48162;DHT22;33950;48.154;16.316;2022-09-27T13:16:47;14.40;99.30
48162;DHT22;33950;48.154;16.316;2022-09-27T13:19:40;14.50;99.20
48162;DHT22;33950;48.154;16.316;2022-09-27T13:22:37;14.40;98.90
48162;DHT22;33950;48.154;16.316;2022-09-27T13:25:45;14.30;98.90
48162;DHT22;33950;48.154;16.316;2022-09-27T13:28:33;14.40;99.10
48162;DHT22;33950;48.154;16.316;2022-09-27T13:32:02;14.40;98.90
48162;DHT22;33950;48.154;16.316;2022-09-27T13:35:17;14.40;98.70
48162;DHT22;33950;48.154;16.316;2022-09-27T13:38:04;14.40;98.40
48162;DHT22;33950;48.154;16.316;2022-09-27T13:40:51;14.40;98.60
48162;DHT22;33950;48.154;16.316;2022-09-27T13:43:45;14.40;98.70
48162;DHT22;33950;48.154;16.316;2022-09-27T13:46:34;14.50;98.30
48162;DHT22;33950;48.154;16.316;2022-09-27T13:49:26;14.50;98.10
48162;DHT22;33950;48.154;16.316;2022-09-27T13:52:18;14.50;98.20
48162;DHT22;33950;48.154;16.316;2022-09-27T13:55:39;14.40;97.70
48162;DHT22;33950;48.154;16.316;2022-09-27T13:58:48;14.30;97.50
48162;DHT22;33950;48.154;16.316;2022-09-27T14:01:38;14.30;97.50
48162;DHT22;33950;48.154;16.316;2022-09-27T14:04:28;14.30;97.40
48162;DHT22;33950;48.154;16.316;2022-09-27T14:07:17;14.20;95.70
48162;DHT22;33950;48.154;16.316;2022-09-27T14:10:04;14.20;94.40
48162;DHT22;33950;48.154;16.316;2022-09-27T14:12:52;14.20;93.90
48162;DHT22;33950;48.154;16.316;2022-09-27T14:15:39;14.10;94.20
48162;DHT22;33950;48.154;16.316;2022-09-27T14:18:25;14.00;94.30
48162;DHT22;33950;48.154;16.316;2022-09-27T14:21:21;14.00;93.90
48162;DHT22;33950;48.154;16.316;2022-09-27T14:24:22;14.10;93.80
48162;DHT22;33950;48.154;16.316;2022-09-27T14:27:14;14.00;93.20
48162;DHT22;33950;48.154;16.316;2022-09-27T14:30:09;14.00;93.50
48162;DHT22;33950;48.154;16.316;2022-09-27T14:32:58;13.90;93.70
48162;DHT22;33950;48.154;16.316;2022-09-27T14:35:47;13.90;93.80
48162;DHT22;33950;48.154;16.316;2022-09-27T14:38:54;14.00;93.90
48162;DHT22;33950;48.154;16.316;2022-09-27T14:41:43;14.10;93.60
48162;DHT22;33950;48.154;16.316;2022-09-27T14:44:30;14.10;93.90
48162;DHT22;33950;48.154;16.316;2022-09-27T14:47:18;14.00;94.00
48162;DHT22;33950;48.154;16.316;2022-09-27T14:50:16;13.90;94.20
48162;DHT22;33950;48.154;16.316;2022-09-27T14:53:02;14.00;94.40
48162;DHT22;33950;48.154;16.316;2022-09-27T14:55:51;13.90;94.40
48162;DHT22;33950;48.154;16.316;2022-09-27T14:58:41;13.90;94.60
48162;DHT22;33950;48.154;16.316;2022-09-27T15:01:29;14.00;94.70
48162;DHT22;33950;48.154;16.316;2022-09-27T15:04:16;13.90;94.90
48162;DHT22;33950;48.154;16.316;2022-09-27T15:07:03;13.90;95.30
48162;DHT22;33950;48.154;16.316;2022-09-27T15:09:50;13.90;95.40
48162;DHT22;33950;48.154;16.316;2022-09-27T15:12:38;13.90;95.40
48162;DHT22;33950;48.154;16.316;2022-09-27T15:15:26;13.90;95.40
48162;DHT22;33950;48.154;16.316;2022-09-27T15:18:33;13.80;95.70
48162;DHT22;33950;48.154;16.316;2022-09-27T15:21:28;13.90;95.90
48162;DHT22;33950;48.154;16.316;2022-09-27T15:24:37;13.90;95.80
48162;DHT22;33950;48.154;16.316;2022-09-27T15:27:24;13.90;96.00
48162;DHT22;33950;48.154;16.316;2022-09-27T15:30:18;13.80;96.00
48162;DHT22;33950;48.154;16.316;2022-09-27T15:33:05;13.90;96.10
48162;DHT22;33950;48.154;16.316;2022-09-27T15:35:54;13.90;96.10
48162;DHT22;33950;48.154;16.316;2022-09-27T15:38:42;13.90;96.10
48162;DHT22;33950;48.154;16.316;2022-09-27T15:41:59;13.90;95.80
48162;DHT22;33950;48.154;16.316;2022-09-27T15:44:47;13.90;95.50
48162;DHT22;33950;48.154;16.316;2022-09-27T15:47:40;13.90;95.70
48162;DHT22;33950;48.154;16.316;2022-09-27T15:50:34;13.90;95.60
48162;DHT22;33950;48.154;16.316;2022-09-27T15:53:50;13.80;95.50
48162;DHT22;33950;48.154;16.316;2022-09-27T15:56:36;13.80;95.00
48162;DHT22;33950;48.154;16.316;2022-09-27T15:59:25;13.80;95.10
48162;DHT22;33950;48.154;16.316;2022-09-27T16:02:14;13.80;94.80
48162;DHT22;33950;48.154;16.316;2022-09-27T16:05:02;13.80;95.00
48162;DHT22;33950;48.154;16.316;2022-09-27T16:07:48;13.80;95.00
48162;DHT22;33950;48.154;16.316;2022-09-27T16:10:36;13.70;95.00
48162;DHT22;33950;48.154;16.316;2022-09-27T16:13:23;13.70;94.80
48162;DHT22;33950;48.154;16.316;2022-09-27T16:16:18;13.70;94.80
48162;DHT22;33950;48.154;16.316;2022-09-27T16:19:04;13.70;94.90
48162;DHT22;33950;48.154;16.316;2022-09-27T16:21:52;13.70;95.00
48162;DHT22;33950;48.154;16.316;2022-09-27T16:24:38;13.70;94.90
48162;DHT22;33950;48.154;16.316;2022-09-27T16:27:24;13.80;95.10
48162;DHT22;33950;48.154;16.316;2022-09-27T16:30:12;13.70;94.90
48162;DHT22;33950;48.154;16.316;2022-09-27T16:32:59;13.70;95.00
48162;DHT22;33950;48.154;16.316;2022-09-27T16:35:45;13.70;94.90
48162;DHT22;33950;48.154;16.316;2022-09-27T16:38:32;13.70;94.80
48162;DHT22;33950;48.154;16.316;2022-09-27T16:41:19;13.70;94.80
48162;DHT22;33950;48.154;16.316;2022-09-27T16:44:06;13.60;94.70
48162;DHT22;33950;48.154;16.316;2022-09-27T16:46:52;13.60;94.50
48162;DHT22;33950;48.154;16.316;2022-09-27T16:49:38;13.60;94.30
48162;DHT22;33950;48.154;16.316;2022-09-27T16:52:43;13.60;94.50
48162;DHT22;33950;48.154;16.316;2022-09-27T16:55:34;13.60;94.30
48162;DHT22;33950;48.154;16.316;2022-09-27T16:58:20;13.50;94.60
48162;DHT22;33950;48.154;16.316;2022-09-27T17:01:06;13.50;94.70
48162;DHT22;33950;48.154;16.316;2022-09-27T17:03:52;13.40;94.60
48162;DHT22;33950;48.154;16.316;2022-09-27T17:06:39;13.40;94.50
48162;DHT22;33950;48.154;16.316;2022-09-27T17:09:25;13.30;94.60
48162;DHT22;33950;48.154;16.316;2022-09-27T17:12:13;13.20;94.30
48162;DHT22;33950;48.154;16.316;2022-09-27T17:14:59;13.30;94.40
48162;DHT22;33950;48.154;16.316;2022-09-27T17:17:47;13.30;94.60
48162;DHT22;33950;48.154;16.316;2022-09-27T17:20:33;13.20;94.40
48162;DHT22;33950;48.154;16.316;2022-09-27T17:23:22;13.20;94.70
48162;DHT22;33950;48.154;16.316;2022-09-27T17:26:26;13.20;94.80
48162;DHT22;33950;48.154;16.316;2022-09-27T17:29:17;13.10;94.90
48162;DHT22;33950;48.154;16.316;2022-09-27T17:32:03;13.00;95.20
48162;DHT22;33950;48.154;16.316;2022-09-27T17:34:53;13.10;95.20
48162;DHT22;33950;48.154;16.316;2022-09-27T17:37:43;13.10;95.10
48162;DHT22;33950;48.154;16.316;2022-09-27T17:40:30;13.10;95.10
48162;DHT22;33950;48.154;16.316;2022-09-27T17:43:16;13.20;95.00
48162;DHT22;33950;48.154;16.316;2022-09-27T17:46:06;13.10;95.00
48162;DHT22;33950;48.154;16.316;2022-09-27T17:48:52;13.20;94.90
48162;DHT22;33950;48.154;16.316;2022-09-27T17:51:58;13.00;94.70
48162;DHT22;33950;48.154;16.316;2022-09-27T17:54:44;13.00;94.80
48162;DHT22;33950;48.154;16.316;2022-09-27T17:57:30;13.00;94.60
48162;DHT22;33950;48.154;16.316;2022-09-27T18:00:17;13.00;94.40
48162;DHT22;33950;48.154;16.316;2022-09-27T18:03:04;13.00;94.60
48162;DHT22;33950;48.154;16.316;2022-09-27T18:05:50;13.00;94.30
48162;DHT22;33950;48.154;16.316;2022-09-27T18:08:36;12.90;94.30
48162;DHT22;33950;48.154;16.316;2022-09-27T18:11:25;12.90;94.40
48162;DHT22;33950;48.154;16.316;2022-09-27T18:14:14;12.90;94.40
48162;DHT22;33950;48.154;16.316;2022-09-27T18:17:00;12.90;94.20
48162;DHT22;33950;48.154;16.316;2022-09-27T18:19:48;12.90;94.20
48162;DHT22;33950;48.154;16.316;2022-09-27T18:22:34;12.90;94.30
48162;DHT22;33950;48.154;16.316;2022-09-27T18:25:21;12.80;94.30
48162;DHT22;33950;48.154;16.316;2022-09-27T18:28:11;12.80;94.40
48162;DHT22;33950;48.154;16.316;2022-09-27T18:31:02;12.80;94.30